sensor_id;sensor_type;location;lat;lon;timestamp;pressure;altitude;pressure_sealevel;temperature;humidity
43878;BME280;29815;48.184;11.268;2023-11-21T00:02:08;95068.31;;;6.10;100.00
43878;BME280;29815;48.184;11.268;2023-11-21T00:04:37;95063.47;;;6.07;100.00
43878;BME280;29815;48.184;11.268;2023-11-21T00:07:07;95063.47;;;6.07;100.00
43878;BME280;29815;48.184;11.268;2023-11-21T00:09:36;95056.50;;;6.06;100.00
43878;BME280;29815;48.184;11.268;2023-11-21T00:12:06;95049.88;;;6.09;100.00
43878;BME280;29815;48.184;11.268;2023-11-21T00:14:37;95044.06;;;6.17;100.00
43878;BME280;29815;48.184;11.268;2023-11-21T00:17:08;95040.09;;;6.20;100.00
43878;BME280;29815;48.184;11.268;2023-11-21T00:19:37;95036.66;;;6.29;100.00
43878;BME280;29815;48.184;11.268;2023-11-21T00:22:07;95034.88;;;6.40;100.00
43878;BME280;29815;48.184;11.268;2023-11-21T00:24:36;95035.22;;;6.49;100.00
43878;BME280;29815;48.184;11.268;2023-11-21T00:27:06;95028.53;;;6.46;100.00
43878;BME280;29815;48.184;11.268;2023-11-21T00:29:35;95020.03;;;6.54;100.00
43878;BME280;29815;48.184;11.268;2023-11-21T00:32:05;95024.28;;;6.50;100.00
43878;BME280;29815;48.184;11.268;2023-11-21T00:34:36;95015.72;;;6.48;100.00
43878;BME280;29815;48.184;11.268;2023-11-21T00:37:06;95016.22;;;6.45;100.00
43878;BME280;29815;48.184;11.268;2023-11-21T00:39:35;95015.97;;;6.47;100.00
43878;BME280;29815;48.184;11.268;2023-11-21T00:42:06;95023.13;;;6.41;100.00
43878;BME280;29815;48.184;11.268;2023-11-21T00:44:37;95014.06;;;6.42;100.00
43878;BME280;29815;48.184;11.268;2023-11-21T00:47:06;95009.94;;;6.29;100.00
43878;BME280;29815;48.184;11.268;2023-11-21T00:49:38;95006.41;;;6.19;100.00
43878;BME280;29815;48.184;11.268;2023-11-21T00:52:09;95011.19;;;6.17;100.00
43878;BME280;29815;48.184;11.268;2023-11-21T00:54:38;95014.63;;;6.12;100.00
43878;BME280;29815;48.184;11.268;2023-11-21T00:57:08;95011.34;;;6.05;100.00
43878;BME280;29815;48.184;11.268;2023-11-21T00:59:39;95014.81;;;6.00;100.00
43878;BME280;29815;48.184;11.268;2023-11-21T01:02:08;95015.53;;;5.91;100.00
43878;BME280;29815;48.184;11.268;2023-11-21T01:04:40;95020.78;;;5.86;100.00
43878;BME280;29815;48.184;11.268;2023-11-21T01:07:09;95018.06;;;5.81;100.00
43878;BME280;29815;48.184;11.268;2023-11-21T01:09:38;95020.16;;;5.73;100.00
43878;BME280;29815;48.184;11.268;2023-11-21T01:12:08;95026.25;;;5.69;100.00
43878;BME280;29815;48.184;11.268;2023-11-21T01:14:37;95024.31;;;5.64;100.00
43878;BME280;29815;48.184;11.268;2023-11-21T01:17:06;95025.88;;;5.60;100.00
43878;BME280;29815;48.184;11.268;2023-11-21T01:19:36;95029.59;;;5.59;100.00
43878;BME280;29815;48.184;11.268;2023-11-21T01:22:06;95026.06;;;5.54;100.00
43878;BME280;29815;48.184;11.268;2023-11-21T01:24:37;95023.09;;;5.50;100.00
43878;BME280;29815;48.184;11.268;2023-11-21T01:27:06;95026.81;;;5.49;100.00
43878;BME280;29815;48.184;11.268;2023-11-21T01:29:37;95029.22;;;5.51;100.00
43878;BME280;29815;48.184;11.268;2023-11-21T01:32:06;95029.28;;;5.56;100.00
43878;BME280;29815;48.184;11.268;2023-11-21T01:34:36;95027.38;;;5.51;100.00
43878;BME280;29815;48.184;11.268;2023-11-21T01:37:06;95029.53;;;5.54;100.00
43878;BME280;29815;48.184;11.268;2023-11-21T01:39:37;95031.41;;;5.54;100.00
43878;BME280;29815;48.184;11.268;2023-11-21T01:42:07;95030.16;;;5.61;100.00
43878;BME280;29815;48.184;11.268;2023-11-21T01:44:39;95031.09;;;5.77;100.00
43878;BME280;29815;48.184;11.268;2023-11-21T01:47:09;95042.22;;;5.91;100.00
43878;BME280;29815;48.184;11.268;2023-11-21T01:49:39;95027.56;;;5.93;100.00
43878;BME280;29815;48.184;11.268;2023-11-21T01:52:10;95035.41;;;6.05;100.00
43878;BME280;29815;48.184;11.268;2023-11-21T01:54:39;95036.34;;;6.21;100.00
43878;BME280;29815;48.184;11.268;2023-11-21T01:57:10;95043.31;;;6.22;100.00
43878;BME280;29815;48.184;11.268;2023-11-21T01:59:39;95042.25;;;6.23;100.00
43878;BME280;29815;48.184;11.268;2023-11-21T02:02:10;95044.56;;;6.14;100.00
43878;BME280;29815;48.184;11.268;2023-11-21T02:04:39;95040.53;;;6.11;100.00
43878;BME280;29815;48.184;11.268;2023-11-21T02:07:10;95046.69;;;6.12;100.00
43878;BME280;29815;48.184;11.268;2023-11-21T02:09:40;95041.91;;;6.14;100.00
43878;BME280;29815;48.184;11.268;2023-11-21T02:12:10;95035.69;;;6.08;100.00
43878;BME280;29815;48.184;11.268;2023-11-21T02:14:40;95039.47;;;6.13;100.00
43878;BME280;29815;48.184;11.268;2023-11-21T02:17:09;95033.84;;;6.09;100.00
43878;BME280;29815;48.184;11.268;2023-11-21T02:19:38;95036.19;;;6.00;100.00
43878;BME280;29815;48.184;11.268;2023-11-21T02:22:08;95026.56;;;5.99;100.00
43878;BME280;29815;48.184;11.268;2023-11-21T02:24:41;95026.25;;;5.96;100.00
43878;BME280;29815;48.184;11.268;2023-11-21T02:27:12;95015.88;;;5.99;100.00
43878;BME280;29815;48.184;11.268;2023-11-21T02:29:45;95017.50;;;6.00;100.00
43878;BME280;29815;48.184;11.268;2023-11-21T02:32:14;95012.59;;;5.92;100.00
43878;BME280;29815;48.184;11.268;2023-11-21T02:34:46;95011.47;;;5.88;100.00
43878;BME280;29815;48.184;11.268;2023-11-21T02:37:16;95016.75;;;5.83;100.00
43878;BME280;29815;48.184;11.268;2023-11-21T02:39:47;95009.50;;;5.78;100.00
43878;BME280;29815;48.184;11.268;2023-11-21T02:42:16;95020.41;;;5.72;100.00
43878;BME280;29815;48.184;11.268;2023-11-21T02:44:45;95013.94;;;5.68;100.00
43878;BME280;29815;48.184;11.268;2023-11-21T02:47:15;95011.16;;;5.58;100.00
43878;BME280;29815;48.184;11.268;2023-11-21T02:49:44;95015.94;;;5.56;100.00
43878;BME280;29815;48.184;11.268;2023-11-21T02:52:14;95007.13;;;5.55;100.00
43878;BME280;29815;48.184;11.268;2023-11-21T02:54:44;95010.06;;;5.54;100.00
43878;BME280;29815;48.184;11.268;2023-11-21T02:57:15;95009.25;;;5.53;100.00
43878;BME280;29815;48.184;11.268;2023-11-21T02:59:44;95010.06;;;5.54;100.00
43878;BME280;29815;48.184;11.268;2023-11-21T03:02:13;95008.75;;;5.56;100.00
43878;BME280;29815;48.184;11.268;2023-11-21T03:04:43;95003.72;;;5.60;100.00
43878;BME280;29815;48.184;11.268;2023-11-21T03:07:16;95009.59;;;5.62;100.00
43878;BME280;29815;48.184;11.268;2023-11-21T03:09:47;95002.97;;;5.64;100.00
43878;BME280;29815;48.184;11.268;2023-11-21T03:12:17;95011.47;;;5.61;100.00
43878;BME280;29815;48.184;11.268;2023-11-21T03:14:47;95013.94;;;5.68;100.00
43878;BME280;29815;48.184;11.268;2023-11-21T03:17:16;95017.97;;;5.70;100.00
43878;BME280;29815;48.184;11.268;2023-11-21T03:19:46;95022.50;;;5.70;100.00
43878;BME280;29815;48.184;11.268;2023-11-21T03:22:15;95020.66;;;5.70;100.00
43878;BME280;29815;48.184;11.268;2023-11-21T03:24:45;95014.50;;;5.70;100.00
43878;BME280;29815;48.184;11.268;2023-11-21T03:27:14;95010.00;;;5.75;100.00
43878;BME280;29815;48.184;11.268;2023-11-21T03:29:45;95002.28;;;5.79;100.00
43878;BME280;29815;48.184;11.268;2023-11-21T03:32:15;95002.53;;;5.77;100.00
43878;BME280;29815;48.184;11.268;2023-11-21T03:34:54;95009.25;;;5.80;100.00
43878;BME280;29815;48.184;11.268;2023-11-21T03:37:26;95004.75;;;5.86;100.00
43878;BME280;29815;48.184;11.268;2023-11-21T03:39:56;95007.69;;;5.84;100.00
43878;BME280;29815;48.184;11.268;2023-11-21T03:42:25;95006.72;;;5.90;100.00
43878;BME280;29815;48.184;11.268;2023-11-21T03:44:56;95010.47;;;5.94;100.00
43878;BME280;29815;48.184;11.268;2023-11-21T03:47:26;95015.53;;;5.91;100.00
43878;BME280;29815;48.184;11.268;2023-11-21T03:49:56;95023.44;;;5.86;100.00
43878;BME280;29815;48.184;11.268;2023-11-21T03:52:26;95017.50;;;5.78;100.00
43878;BME280;29815;48.184;11.268;2023-11-21T03:54:56;95018.28;;;5.74;100.00
43878;BME280;29815;48.184;11.268;2023-11-21T03:57:25;95022.00;;;5.73;100.00
43878;BME280;29815;48.184;11.268;2023-11-21T03:59:56;95015.69;;;5.84;100.00
43878;BME280;29815;48.184;11.268;2023-11-21T04:02:26;95013.28;;;5.83;100.00
43878;BME280;29815;48.184;11.268;2023-11-21T04:04:56;95018.25;;;5.96;100.00
43878;BME280;29815;48.184;11.268;2023-11-21T04:07:25;95022.53;;;5.97;100.00
43878;BME280;29815;48.184;11.268;2023-11-21T04:09:54;95024.97;;;6.03;100.00
43878;BME280;29815;48.184;11.268;2023-11-21T04:12:24;95019.72;;;6.14;100.00
43878;BME280;29815;48.184;11.268;2023-11-21T04:14:53;95023.50;;;6.18;100.00
43878;BME280;29815;48.184;11.268;2023-11-21T04:17:24;95023.19;;;6.14;100.00
43878;BME280;29815;48.184;11.268;2023-11-21T04:19:54;95019.22;;;6.17;100.00
43878;BME280;29815;48.184;11.268;2023-11-21T04:22:23;95021.38;;;6.20;100.00
43878;BME280;29815;48.184;11.268;2023-11-21T04:24:52;95014.94;;;6.16;100.00
43878;BME280;29815;48.184;11.268;2023-11-21T04:27:23;95016.00;;;6.15;100.00
43878;BME280;29815;48.184;11.268;2023-11-21T04:29:52;95021.88;;;6.17;100.00
43878;BME280;29815;48.184;11.268;2023-11-21T04:32:23;95024.00;;;6.15;100.00
43878;BME280;29815;48.184;11.268;2023-11-21T04:34:52;95020.03;;;6.17;100.00
43878;BME280;29815;48.184;11.268;2023-11-21T04:37:22;95030.66;;;6.12;100.00
43878;BME280;29815;48.184;11.268;2023-11-21T04:39:52;95022.91;;;6.10;100.00
43878;BME280;29815;48.184;11.268;2023-11-21T04:42:21;95026.03;;;6.02;100.00
43878;BME280;29815;48.184;11.268;2023-11-21T04:44:51;95019.94;;;6.07;100.00
43878;BME280;29815;48.184;11.268;2023-11-21T04:47:20;95025.75;;;5.99;100.00
43878;BME280;29815;48.184;11.268;2023-11-21T04:49:51;95016.38;;;5.96;100.00
43878;BME280;29815;48.184;11.268;2023-11-21T04:52:20;95017.19;;;5.97;100.00
43878;BME280;29815;48.184;11.268;2023-11-21T04:54:49;95024.66;;;5.95;100.00
43878;BME280;29815;48.184;11.268;2023-11-21T04:57:19;95022.97;;;5.89;100.00
43878;BME280;29815;48.184;11.268;2023-11-21T04:59:48;95021.34;;;5.88;100.00
43878;BME280;29815;48.184;11.268;2023-11-21T05:02:18;95022.28;;;5.76;100.00
43878;BME280;29815;48.184;11.268;2023-11-21T05:05:04;95016.38;;;5.74;100.00
43878;BME280;29815;48.184;11.268;2023-11-21T05:07:35;95021.03;;;5.84;100.00
43878;BME280;29815;48.184;11.268;2023-11-21T05:10:06;95013.53;;;5.81;100.00
43878;BME280;29815;48.184;11.268;2023-11-21T05:12:40;95021.66;;;5.91;100.00
43878;BME280;29815;48.184;11.268;2023-11-21T05:15:14;95028.50;;;5.82;100.00
43878;BME280;29815;48.184;11.268;2023-11-21T05:17:44;95021.53;;;5.81;100.00
43878;BME280;29815;48.184;11.268;2023-11-21T05:20:15;95031.16;;;5.82;100.00
43878;BME280;29815;48.184;11.268;2023-11-21T05:22:48;95023.91;;;5.77;100.00
43878;BME280;29815;48.184;11.268;2023-11-21T05:25:18;95031.88;;;5.72;100.00
43878;BME280;29815;48.184;11.268;2023-11-21T05:27:47;95037.22;;;5.72;100.00
43878;BME280;29815;48.184;11.268;2023-11-21T05:30:17;95028.16;;;5.73;100.00
43878;BME280;29815;48.184;11.268;2023-11-21T05:32:46;95029.16;;;5.67;100.00
43878;BME280;29815;48.184;11.268;2023-11-21T05:35:19;95037.41;;;5.66;100.00
43878;BME280;29815;48.184;11.268;2023-11-21T05:37:49;95033.69;;;5.67;100.00
43878;BME280;29815;48.184;11.268;2023-11-21T05:40:18;95036.81;;;5.59;100.00
43878;BME280;29815;48.184;11.268;2023-11-21T05:42:50;95041.09;;;5.60;100.00
43878;BME280;29815;48.184;11.268;2023-11-21T05:45:20;95045.81;;;5.53;100.00
43878;BME280;29815;48.184;11.268;2023-11-21T05:47:50;95043.38;;;5.51;100.00
43878;BME280;29815;48.184;11.268;2023-11-21T05:50:22;95044.94;;;5.47;100.00
43878;BME280;29815;48.184;11.268;2023-11-21T05:52:51;95042.72;;;5.39;100.00
43878;BME280;29815;48.184;11.268;2023-11-21T05:55:22;95045.97;;;5.41;100.00
43878;BME280;29815;48.184;11.268;2023-11-21T05:57:53;95047.25;;;5.38;100.00
43878;BME280;29815;48.184;11.268;2023-11-21T06:00:23;95049.75;;;5.45;100.00
43878;BME280;29815;48.184;11.268;2023-11-21T06:02:54;95048.06;;;5.39;100.00
43878;BME280;29815;48.184;11.268;2023-11-21T06:05:26;95050.44;;;5.35;100.00
43878;BME280;29815;48.184;11.268;2023-11-21T06:07:55;95051.53;;;5.39;100.00
43878;BME280;29815;48.184;11.268;2023-11-21T06:10:27;95057.38;;;5.36;100.00
43878;BME280;29815;48.184;11.268;2023-11-21T06:12:57;95055.34;;;5.43;100.00
43878;BME280;29815;48.184;11.268;2023-11-21T06:15:31;95060.91;;;5.42;100.00
43878;BME280;29815;48.184;11.268;2023-11-21T06:18:00;95059.22;;;5.36;100.00
43878;BME280;29815;48.184;11.268;2023-11-21T06:20:31;95062.28;;;5.44;100.00
43878;BME280;29815;48.184;11.268;2023-11-21T06:23:01;95069.47;;;5.44;100.00
43878;BME280;29815;48.184;11.268;2023-11-21T06:25:32;95073.44;;;5.41;100.00
43878;BME280;29815;48.184;11.268;2023-11-21T06:28:04;95071.91;;;5.46;100.00
43878;BME280;29815;48.184;11.268;2023-11-21T06:30:34;95087.09;;;5.45;100.00
43878;BME280;29815;48.184;11.268;2023-11-21T06:33:03;95073.94;;;5.38;100.00
43878;BME280;29815;48.184;11.268;2023-11-21T06:35:34;95083.00;;;5.37;100.00
43878;BME280;29815;48.184;11.268;2023-11-21T06:38:03;95076.00;;;5.31;100.00
43878;BME280;29815;48.184;11.268;2023-11-21T06:40:32;95075.81;;;5.38;100.00
43878;BME280;29815;48.184;11.268;2023-11-21T06:43:02;95083.88;;;5.43;100.00
43878;BME280;29815;48.184;11.268;2023-11-21T06:45:32;95079.63;;;5.47;100.00
43878;BME280;29815;48.184;11.268;2023-11-21T06:48:02;95087.09;;;5.45;100.00
43878;BME280;29815;48.184;11.268;2023-11-21T06:50:31;95096.66;;;5.41;100.00
43878;BME280;29815;48.184;11.268;2023-11-21T06:53:02;95100.50;;;5.50;100.00
43878;BME280;29815;48.184;11.268;2023-11-21T06:55:34;95093.53;;;5.49;100.00
43878;BME280;29815;48.184;11.268;2023-11-21T06:58:03;95094.34;;;5.50;100.00
43878;BME280;29815;48.184;11.268;2023-11-21T07:00:33;95097.56;;;5.52;100.00
43878;BME280;29815;48.184;11.268;2023-11-21T07:03:02;95102.91;;;5.52;100.00
43878;BME280;29815;48.184;11.268;2023-11-21T07:05:33;95102.88;;;5.47;100.00
43878;BME280;29815;48.184;11.268;2023-11-21T07:08:03;95110.66;;;5.53;100.00
43878;BME280;29815;48.184;11.268;2023-11-21T07:10:33;95109.13;;;5.57;100.00
43878;BME280;29815;48.184;11.268;2023-11-21T07:13:04;95113.72;;;5.62;100.00
43878;BME280;29815;48.184;11.268;2023-11-21T07:15:34;95120.44;;;5.64;100.00
43878;BME280;29815;48.184;11.268;2023-11-21T07:18:04;95120.75;;;5.68;100.00
43878;BME280;29815;48.184;11.268;2023-11-21T07:20:37;95118.63;;;5.70;100.00
43878;BME280;29815;48.184;11.268;2023-11-21T07:23:06;95117.19;;;5.62;100.00
43878;BME280;29815;48.184;11.268;2023-11-21T07:25:35;95104.34;;;5.59;100.00
43878;BME280;29815;48.184;11.268;2023-11-21T07:28:05;95111.59;;;5.64;100.00
43878;BME280;29815;48.184;11.268;2023-11-21T07:30:34;95121.78;;;5.67;100.00
43878;BME280;29815;48.184;11.268;2023-11-21T07:33:03;95133.47;;;5.61;100.00
43878;BME280;29815;48.184;11.268;2023-11-21T07:35:33;95124.88;;;5.59;100.00
43878;BME280;29815;48.184;11.268;2023-11-21T07:38:03;95126.19;;;5.56;100.00
43878;BME280;29815;48.184;11.268;2023-11-21T07:40:33;95126.44;;;5.55;100.00
43878;BME280;29815;48.184;11.268;2023-11-21T07:43:02;95124.09;;;5.58;100.00
43878;BME280;29815;48.184;11.268;2023-11-21T07:45:33;95124.56;;;5.55;100.00
43878;BME280;29815;48.184;11.268;2023-11-21T07:48:03;95131.66;;;5.44;100.00
43878;BME280;29815;48.184;11.268;2023-11-21T07:50:34;95133.78;;;5.42;100.00
43878;BME280;29815;48.184;11.268;2023-11-21T07:53:05;95141.28;;;5.46;100.00
43878;BME280;29815;48.184;11.268;2023-11-21T07:55:34;95135.16;;;5.45;100.00
43878;BME280;29815;48.184;11.268;2023-11-21T07:58:04;95141.81;;;5.48;100.00
43878;BME280;29815;48.184;11.268;2023-11-21T08:00:33;95137.56;;;5.47;100.00
43878;BME280;29815;48.184;11.268;2023-11-21T08:03:02;95129.28;;;5.48;100.00
43878;BME280;29815;48.184;11.268;2023-11-21T08:05:32;95132.03;;;5.53;100.00
43878;BME280;29815;48.184;11.268;2023-11-21T08:08:06;95125.75;;;5.64;100.00
43878;BME280;29815;48.184;11.268;2023-11-21T08:10:35;95143.50;;;5.75;100.00
43878;BME280;29815;48.184;11.268;2023-11-21T08:13:05;95138.72;;;5.77;100.00
43878;BME280;29815;48.184;11.268;2023-11-21T08:15:36;95141.75;;;5.86;100.00
43878;BME280;29815;48.184;11.268;2023-11-21T08:18:06;95138.94;;;5.93;100.00
43878;BME280;29815;48.184;11.268;2023-11-21T08:20:36;95135.72;;;5.91;100.00
43878;BME280;29815;48.184;11.268;2023-11-21T08:23:09;95142.97;;;5.95;100.00
43878;BME280;29815;48.184;11.268;2023-11-21T08:25:38;95134.75;;;6.02;100.00
43878;BME280;29815;48.184;11.268;2023-11-21T08:28:07;95137.28;;;6.14;100.00
43878;BME280;29815;48.184;11.268;2023-11-21T08:30:37;95133.03;;;6.18;100.00
43878;BME280;29815;48.184;11.268;2023-11-21T08:33:07;95137.63;;;6.22;100.00
43878;BME280;29815;48.184;11.268;2023-11-21T08:35:37;95140.94;;;6.34;100.00
43878;BME280;29815;48.184;11.268;2023-11-21T08:38:08;95134.66;;;6.45;100.00
43878;BME280;29815;48.184;11.268;2023-11-21T08:40:38;95139.53;;;6.54;100.00
43878;BME280;29815;48.184;11.268;2023-11-21T08:43:08;95140.91;;;6.61;100.00
43878;BME280;29815;48.184;11.268;2023-11-21T08:45:40;95137.41;;;6.56;100.00
43878;BME280;29815;48.184;11.268;2023-11-21T08:48:09;95137.22;;;6.67;100.00
43878;BME280;29815;48.184;11.268;2023-11-21T08:50:39;95146.34;;;6.71;100.00
43878;BME280;29815;48.184;11.268;2023-11-21T08:53:10;95141.81;;;6.72;100.00
43878;BME280;29815;48.184;11.268;2023-11-21T08:55:39;95139.19;;;6.77;100.00
43878;BME280;29815;48.184;11.268;2023-11-21T08:58:08;95147.00;;;6.84;100.00
43878;BME280;29815;48.184;11.268;2023-11-21T09:00:40;95145.69;;;6.91;100.00
43878;BME280;29815;48.184;11.268;2023-11-21T09:03:09;95142.50;;;6.94;100.00
43878;BME280;29815;48.184;11.268;2023-11-21T09:05:39;95143.63;;;6.98;100.00
43878;BME280;29815;48.184;11.268;2023-11-21T09:08:10;95151.69;;;7.03;100.00
43878;BME280;29815;48.184;11.268;2023-11-21T09:10:39;95160.25;;;7.05;100.00
43878;BME280;29815;48.184;11.268;2023-11-21T09:13:11;95159.22;;;7.11;100.00
43878;BME280;29815;48.184;11.268;2023-11-21T09:15:40;95161.38;;;7.09;100.00
43878;BME280;29815;48.184;11.268;2023-11-21T09:18:12;95161.63;;;7.08;100.00
43878;BME280;29815;48.184;11.268;2023-11-21T09:20:42;95156.03;;;7.14;100.00
43878;BME280;29815;48.184;11.268;2023-11-21T09:23:14;95157.63;;;7.16;100.00
43878;BME280;29815;48.184;11.268;2023-11-21T09:25:43;95156.84;;;7.15;100.00
43878;BME280;29815;48.184;11.268;2023-11-21T09:28:14;95157.41;;;7.22;100.00
43878;BME280;29815;48.184;11.268;2023-11-21T09:30:45;95166.25;;;7.23;100.00
43878;BME280;29815;48.184;11.268;2023-11-21T09:33:14;95167.31;;;7.22;100.00
43878;BME280;29815;48.184;11.268;2023-11-21T09:35:44;95174.09;;;7.34;100.00
43878;BME280;29815;48.184;11.268;2023-11-21T09:38:14;95171.72;;;7.38;100.00
43878;BME280;29815;48.184;11.268;2023-11-21T09:40:43;95173.59;;;7.42;100.00
43878;BME280;29815;48.184;11.268;2023-11-21T09:43:16;95180.56;;;7.43;100.00
43878;BME280;29815;48.184;11.268;2023-11-21T09:45:47;95176.25;;;7.37;100.00
43878;BME280;29815;48.184;11.268;2023-11-21T09:48:18;95180.00;;;7.36;100.00
43878;BME280;29815;48.184;11.268;2023-11-21T09:50:49;95175.97;;;7.39;100.00
43878;BME280;29815;48.184;11.268;2023-11-21T09:53:23;95175.72;;;7.40;100.00
43878;BME280;29815;48.184;11.268;2023-11-21T09:55:55;95174.19;;;7.50;100.00
43878;BME280;29815;48.184;11.268;2023-11-21T09:58:24;95178.97;;;7.47;100.00
43878;BME280;29815;48.184;11.268;2023-11-21T10:00:55;95176.31;;;7.47;100.00
43878;BME280;29815;48.184;11.268;2023-11-21T10:03:26;95173.38;;;7.49;100.00
43878;BME280;29815;48.184;11.268;2023-11-21T10:05:56;95172.63;;;7.59;100.00
43878;BME280;29815;48.184;11.268;2023-11-21T10:08:28;95175.31;;;7.59;100.00
43878;BME280;29815;48.184;11.268;2023-11-21T10:11:16;95178.81;;;7.69;100.00
43878;BME280;29815;48.184;11.268;2023-11-21T10:13:46;95160.84;;;7.60;100.00
43878;BME280;29815;48.184;11.268;2023-11-21T10:16:16;95166.75;;;7.62;100.00
43878;BME280;29815;48.184;11.268;2023-11-21T10:18:49;95167.03;;;7.60;100.00
43878;BME280;29815;48.184;11.268;2023-11-21T10:21:30;95172.09;;;7.57;100.00
43878;BME280;29815;48.184;11.268;2023-11-21T10:24:01;95172.66;;;7.64;100.00
43878;BME280;29815;48.184;11.268;2023-11-21T10:26:30;95177.75;;;7.65;100.00
43878;BME280;29815;48.184;11.268;2023-11-21T10:29:14;95164.06;;;7.57;100.00
43878;BME280;29815;48.184;11.268;2023-11-21T10:31:44;95162.44;;;7.56;100.00
43878;BME280;29815;48.184;11.268;2023-11-21T10:34:14;95171.06;;;7.68;100.00
43878;BME280;29815;48.184;11.268;2023-11-21T10:36:44;95166.31;;;7.85;100.00
43878;BME280;29815;48.184;11.268;2023-11-21T10:39:16;95170.38;;;7.98;100.00
43878;BME280;29815;48.184;11.268;2023-11-21T10:41:47;95173.13;;;8.13;100.00
43878;BME280;29815;48.184;11.268;2023-11-21T10:44:18;95177.44;;;8.24;100.00
43878;BME280;29815;48.184;11.268;2023-11-21T10:46:50;95175.09;;;8.43;100.00
43878;BME280;29815;48.184;11.268;2023-11-21T10:49:25;95171.63;;;8.58;100.00
43878;BME280;29815;48.184;11.268;2023-11-21T10:51:55;95170.56;;;8.59;100.00
43878;BME280;29815;48.184;11.268;2023-11-21T10:54:26;95173.00;;;8.70;100.00
43878;BME280;29815;48.184;11.268;2023-11-21T10:56:57;95162.53;;;8.69;100.00
43878;BME280;29815;48.184;11.268;2023-11-21T10:59:28;95166.84;;;8.70;100.00
43878;BME280;29815;48.184;11.268;2023-11-21T11:02:01;95176.22;;;8.72;100.00
43878;BME280;29815;48.184;11.268;2023-11-21T11:04:31;95168.69;;;8.64;100.00
43878;BME280;29815;48.184;11.268;2023-11-21T11:07:02;95171.09;;;8.56;100.00
43878;BME280;29815;48.184;11.268;2023-11-21T11:09:34;95161.97;;;8.46;100.00
43878;BME280;29815;48.184;11.268;2023-11-21T11:12:04;95171.34;;;8.39;100.00
43878;BME280;29815;48.184;11.268;2023-11-21T11:14:34;95169.47;;;8.44;100.00
43878;BME280;29815;48.184;11.268;2023-11-21T11:17:03;95166.25;;;8.37;100.00
43878;BME280;29815;48.184;11.268;2023-11-21T11:19:34;95174.50;;;8.31;100.00
43878;BME280;29815;48.184;11.268;2023-11-21T11:22:12;95170.44;;;8.23;100.00
43878;BME280;29815;48.184;11.268;2023-11-21T11:25:14;95168.03;;;8.22;100.00
43878;BME280;29815;48.184;11.268;2023-11-21T11:27:54;95162.16;;;8.20;100.00
43878;BME280;29815;48.184;11.268;2023-11-21T11:30:32;95164.03;;;8.24;100.00
43878;BME280;29815;48.184;11.268;2023-11-21T11:33:12;95157.59;;;8.25;100.00
43878;BME280;29815;48.184;11.268;2023-11-21T11:35:57;95161.19;;;8.46;100.00
43878;BME280;29815;48.184;11.268;2023-11-21T11:38:31;95162.78;;;8.52;100.00
43878;BME280;29815;48.184;11.268;2023-11-21T11:41:06;95155.00;;;8.51;100.00
43878;BME280;29815;48.184;11.268;2023-11-21T11:43:37;95155.81;;;8.46;100.00
43878;BME280;29815;48.184;11.268;2023-11-21T11:46:12;95160.91;;;8.47;100.00
43878;BME280;29815;48.184;11.268;2023-11-21T11:48:42;95162.50;;;8.54;100.00
43878;BME280;29815;48.184;11.268;2023-11-21T11:51:14;95158.50;;;8.56;100.00
43878;BME280;29815;48.184;11.268;2023-11-21T11:53:46;95164.69;;;8.67;100.00
43878;BME280;29815;48.184;11.268;2023-11-21T11:56:22;95156.09;;;8.85;100.00
43878;BME280;29815;48.184;11.268;2023-11-21T11:58:55;95157.44;;;8.98;100.00
43878;BME280;29815;48.184;11.268;2023-11-21T12:01:26;95155.81;;;9.12;100.00
43878;BME280;29815;48.184;11.268;2023-11-21T12:04:25;95159.56;;;9.11;100.00
43878;BME280;29815;48.184;11.268;2023-11-21T12:07:04;95165.75;;;9.22;100.00
43878;BME280;29815;48.184;11.268;2023-11-21T12:09:35;95162.25;;;9.16;100.00
43878;BME280;29815;48.184;11.268;2023-11-21T12:12:08;95162.25;;;9.21;100.00
43878;BME280;29815;48.184;11.268;2023-11-21T12:14:37;95160.91;;;9.08;100.00
43878;BME280;29815;48.184;11.268;2023-11-21T12:17:07;95152.88;;;8.98;100.00
43878;BME280;29815;48.184;11.268;2023-11-21T12:19:36;95165.50;;;8.88;100.00
43878;BME280;29815;48.184;11.268;2023-11-21T12:22:06;95161.75;;;8.73;100.00
43878;BME280;29815;48.184;11.268;2023-11-21T12:24:35;95166.28;;;8.68;100.00
43878;BME280;29815;48.184;11.268;2023-11-21T12:27:07;95164.16;;;8.70;100.00
43878;BME280;29815;48.184;11.268;2023-11-21T12:29:36;95166.53;;;8.61;100.00
43878;BME280;29815;48.184;11.268;2023-11-21T12:32:06;95154.47;;;8.59;100.00
43878;BME280;29815;48.184;11.268;2023-11-21T12:34:36;95165.72;;;8.56;100.00
43878;BME280;29815;48.184;11.268;2023-11-21T12:37:06;95170.00;;;8.52;100.00
43878;BME280;29815;48.184;11.268;2023-11-21T12:39:36;95163.03;;;8.51;100.00
43878;BME280;29815;48.184;11.268;2023-11-21T12:42:06;95160.38;;;8.45;100.00
43878;BME280;29815;48.184;11.268;2023-11-21T12:44:36;95164.66;;;8.52;100.00
43878;BME280;29815;48.184;11.268;2023-11-21T12:47:08;95158.75;;;8.55;100.00
43878;BME280;29815;48.184;11.268;2023-11-21T12:49:40;95165.72;;;8.51;100.00
43878;BME280;29815;48.184;11.268;2023-11-21T12:52:12;95165.19;;;8.54;100.00
43878;BME280;29815;48.184;11.268;2023-11-21T12:54:42;95158.50;;;8.56;100.00
43878;BME280;29815;48.184;11.268;2023-11-21T12:57:17;95159.00;;;8.53;100.00
43878;BME280;29815;48.184;11.268;2023-11-21T12:59:48;95164.38;;;8.48;100.00
43878;BME280;29815;48.184;11.268;2023-11-21T13:02:41;95169.75;;;8.53;100.00
43878;BME280;29815;48.184;11.268;2023-11-21T13:05:11;95165.47;;;8.47;100.00
43878;BME280;29815;48.184;11.268;2023-11-21T13:07:49;95168.41;;;8.45;100.00
43878;BME280;29815;48.184;11.268;2023-11-21T13:10:23;95167.34;;;8.46;100.00